createdAt,value
2018-07-27T00:00:54.247Z,27.00
2018-07-27T00:04:57.595Z,26.90
2018-07-27T00:09:00.907Z,26.80
2018-07-27T00:13:04.266Z,26.80
2018-07-27T00:17:07.613Z,26.70
2018-07-27T00:21:10.972Z,26.60
2018-07-27T00:25:14.317Z,26.60
2018-07-27T00:29:17.631Z,26.50
2018-07-27T00:33:20.985Z,26.50
2018-07-27T00:37:24.348Z,26.40
2018-07-27T00:41:27.675Z,26.40
2018-07-27T00:45:31.017Z,26.30
2018-07-27T00:49:34.338Z,26.20
2018-07-27T00:53:37.662Z,26.20
2018-07-27T00:57:41.015Z,26.10
2018-07-27T01:01:44.352Z,26.00
2018-07-27T01:05:47.688Z,26.00
2018-07-27T01:09:51.062Z,25.90
2018-07-27T01:13:54.515Z,25.90
2018-07-27T01:17:58.547Z,25.80
2018-07-27T01:22:01.920Z,25.80
2018-07-27T01:26:05.267Z,25.70
2018-07-27T01:30:08.620Z,25.60
2018-07-27T01:34:11.975Z,25.50
2018-07-27T01:42:18.368Z,25.40
2018-07-27T01:46:21.688Z,25.30
2018-07-27T01:50:25.113Z,25.20
2018-07-27T01:54:28.451Z,25.20
2018-07-27T01:58:31.843Z,25.10
2018-07-27T02:02:35.171Z,25.00
2018-07-27T02:06:38.502Z,25.00
2018-07-27T02:10:41.943Z,24.90
2018-07-27T02:14:45.270Z,24.80
2018-07-27T02:18:48.660Z,24.70
2018-07-27T02:22:52.624Z,24.70
2018-07-27T02:27:01.391Z,24.60
2018-07-27T02:31:04.738Z,24.60
2018-07-27T02:35:08.083Z,24.50
2018-07-27T02:39:12.148Z,24.50
2018-07-27T02:43:15.546Z,24.50
2018-07-27T02:47:18.916Z,24.40
2018-07-27T02:51:22.419Z,24.40
2018-07-27T02:55:25.714Z,24.40
2018-07-27T02:59:29.047Z,24.30
2018-07-27T03:03:32.375Z,24.30
2018-07-27T03:07:35.823Z,24.30
2018-07-27T03:11:39.467Z,24.30
2018-07-27T03:15:42.782Z,24.30
2018-07-27T03:19:46.135Z,24.20
2018-07-27T03:23:49.466Z,24.20
2018-07-27T03:27:52.813Z,24.20
2018-07-27T03:31:56.167Z,24.20
2018-07-27T03:35:59.488Z,24.10
2018-07-27T03:40:03.149Z,24.10
2018-07-27T03:44:06.537Z,24.10
2018-07-27T03:48:10.435Z,24.10
2018-07-27T03:52:13.772Z,24.00
2018-07-27T04:00:20.228Z,24.00
2018-07-27T04:04:23.571Z,23.90
2018-07-27T04:08:26.901Z,23.90
2018-07-27T04:12:30.247Z,23.90
2018-07-27T04:16:33.671Z,23.80
2018-07-27T04:20:37.015Z,23.80
2018-07-27T04:24:40.348Z,23.80
2018-07-27T04:28:43.700Z,23.80
2018-07-27T04:32:47.291Z,23.70
2018-07-27T04:36:50.616Z,23.70
2018-07-27T04:40:53.977Z,23.70
2018-07-27T04:44:57.308Z,23.70
2018-07-27T04:49:00.652Z,23.70
2018-07-27T04:53:03.983Z,23.80
2018-07-27T04:57:07.332Z,23.70
2018-07-27T05:01:10.658Z,23.80
2018-07-27T05:05:13.990Z,23.80
2018-07-27T05:09:19.323Z,23.80
2018-07-27T05:13:22.661Z,23.80
2018-07-27T05:17:26.427Z,23.90
2018-07-27T05:21:29.764Z,23.90
2018-07-27T05:25:33.098Z,23.90
2018-07-27T05:29:36.539Z,24.00
2018-07-27T05:33:39.864Z,24.00
2018-07-27T05:37:43.211Z,24.00
2018-07-27T05:41:46.623Z,24.10
2018-07-27T05:45:49.976Z,24.20
2018-07-27T05:49:53.323Z,24.20
2018-07-27T05:53:56.675Z,24.20
2018-07-27T05:58:00.013Z,24.30
2018-07-27T06:06:12.997Z,24.50
2018-07-27T06:10:16.361Z,24.50
2018-07-27T06:14:19.702Z,24.60
2018-07-27T06:18:23.076Z,24.70
2018-07-27T06:22:26.466Z,24.70
2018-07-27T06:26:29.817Z,24.80
2018-07-27T06:30:33.175Z,24.90
2018-07-27T06:34:36.960Z,25.00
2018-07-27T06:38:40.323Z,25.10
2018-07-27T06:42:43.657Z,25.10
2018-07-27T06:46:47.008Z,25.30
2018-07-27T06:50:51.475Z,25.30
2018-07-27T06:54:54.895Z,25.40
2018-07-27T06:58:58.447Z,25.50
2018-07-27T07:03:01.817Z,25.60
2018-07-27T07:07:05.303Z,25.70
2018-07-27T07:11:08.635Z,25.80
2018-07-27T07:15:11.970Z,25.90
2018-07-27T07:19:15.323Z,26.00
2018-07-27T07:23:18.656Z,26.10
2018-07-27T07:27:22.008Z,26.20
2018-07-27T07:31:25.347Z,26.40
2018-07-27T07:35:28.691Z,26.50
2018-07-27T07:39:32.026Z,26.60
2018-07-27T07:43:35.367Z,26.70
2018-07-27T07:47:38.710Z,26.80
2018-07-27T07:51:42.079Z,27.00
2018-07-27T07:55:45.443Z,27.20
2018-07-27T07:59:48.791Z,27.20
2018-07-27T08:03:52.311Z,27.40
2018-07-27T08:07:55.659Z,27.50
2018-07-27T08:11:59.438Z,27.70
2018-07-27T08:16:02.836Z,27.80
2018-07-27T08:20:06.305Z,27.90
2018-07-27T08:28:24.051Z,28.20
2018-07-27T08:32:27.392Z,28.30
2018-07-27T08:36:31.054Z,28.40
2018-07-27T08:40:34.423Z,28.60
2018-07-27T08:44:39.042Z,28.70
2018-07-27T08:48:42.399Z,28.90
2018-07-27T08:52:45.751Z,29.00
2018-07-27T08:56:49.062Z,29.10
2018-07-27T09:00:55.580Z,29.20
2018-07-27T09:04:59.075Z,29.40
2018-07-27T09:09:02.605Z,29.50
2018-07-27T09:13:06.551Z,29.70
2018-07-27T09:17:09.908Z,29.90
2018-07-27T09:21:13.415Z,30.10
2018-07-27T09:25:17.141Z,30.30
2018-07-27T09:29:20.095Z,30.50
2018-07-27T09:33:23.522Z,30.70
2018-07-27T09:37:26.879Z,31.00
2018-07-27T09:41:30.204Z,31.20
2018-07-27T09:45:33.526Z,31.40
2018-07-27T09:49:36.859Z,31.60
2018-07-27T09:53:40.237Z,31.80
2018-07-27T09:57:43.576Z,32.00
2018-07-27T10:01:46.926Z,32.20
2018-07-27T10:05:50.282Z,32.40
2018-07-27T10:09:53.658Z,32.60
2018-07-27T10:13:57.024Z,32.80
2018-07-27T10:18:00.497Z,33.00
2018-07-27T10:22:03.851Z,33.20
2018-07-27T10:26:07.348Z,33.40
2018-07-27T10:30:10.678Z,33.60
2018-07-27T10:34:14.017Z,33.70
2018-07-27T10:38:17.541Z,33.90
2018-07-27T10:42:20.855Z,34.10
2018-07-27T10:46:24.180Z,34.30
2018-07-27T10:50:27.539Z,34.30
2018-07-27T10:54:30.867Z,34.50
2018-07-27T10:58:34.203Z,34.60
2018-07-27T11:02:37.543Z,34.80
2018-07-27T11:06:40.896Z,34.90
2018-07-27T11:10:44.275Z,35.00
2018-07-27T11:14:47.612Z,35.00
2018-07-27T11:22:54.003Z,35.30
2018-07-27T11:26:57.458Z,35.40
2018-07-27T11:31:00.879Z,35.50
2018-07-27T11:35:04.247Z,35.70
2018-07-27T11:39:09.816Z,35.80
2018-07-27T11:43:13.123Z,35.80
2018-07-27T11:47:16.464Z,36.00
2018-07-27T11:51:20.243Z,36.00
2018-07-27T11:55:23.589Z,36.10
2018-07-27T11:59:26.940Z,36.10
2018-07-27T12:03:30.258Z,36.20
2018-07-27T12:07:33.587Z,36.20
2018-07-27T12:11:37.046Z,36.30
2018-07-27T12:15:40.377Z,36.40
2018-07-27T12:19:43.738Z,36.50
2018-07-27T12:23:47.056Z,36.60
2018-07-27T12:27:50.386Z,36.70
2018-07-27T12:31:53.770Z,36.70
2018-07-27T12:35:57.096Z,36.80
2018-07-27T12:40:00.419Z,36.90
2018-07-27T12:44:03.739Z,37.00
2018-07-27T12:48:07.072Z,37.00
2018-07-27T12:52:10.408Z,37.10
2018-07-27T12:56:13.736Z,37.20
2018-07-27T13:00:17.067Z,37.20
2018-07-27T13:04:20.402Z,37.20
2018-07-27T13:08:23.756Z,37.30
2018-07-27T13:12:27.096Z,37.30
2018-07-27T13:16:30.423Z,37.30
2018-07-27T13:20:47.024Z,37.40
2018-07-27T13:24:57.326Z,37.50
2018-07-27T13:28:53.775Z,37.60
2018-07-27T13:32:57.091Z,37.60
2018-07-27T13:37:00.456Z,37.70
2018-07-27T13:41:03.850Z,37.70
2018-07-27T13:45:07.199Z,37.70
2018-07-27T13:49:10.567Z,37.80
2018-07-27T13:53:13.904Z,37.80
2018-07-27T13:57:17.345Z,37.80
2018-07-27T14:01:20.755Z,37.90
2018-07-27T14:05:24.114Z,37.90
2018-07-27T14:09:27.454Z,37.80
2018-07-27T14:13:30.808Z,37.80
2018-07-27T14:17:34.152Z,37.80
2018-07-27T14:21:37.594Z,37.90
2018-07-27T14:25:40.871Z,37.90
2018-07-27T14:29:44.211Z,37.90
2018-07-27T14:33:47.607Z,37.90
2018-07-27T14:37:50.936Z,37.90
2018-07-27T14:45:57.315Z,37.90
2018-07-27T14:50:00.697Z,37.80
2018-07-27T14:54:04.864Z,37.80
2018-07-27T14:58:09.020Z,37.70
2018-07-27T15:02:12.326Z,37.70
2018-07-27T15:06:15.666Z,37.80
2018-07-27T15:10:18.983Z,37.70
2018-07-27T15:14:22.316Z,37.70
2018-07-27T15:18:25.645Z,37.70
2018-07-27T15:22:28.991Z,37.70
2018-07-27T15:26:32.318Z,37.70
2018-07-27T15:30:35.688Z,37.60
2018-07-27T15:34:39.010Z,37.60
2018-07-27T15:38:42.335Z,37.60
2018-07-27T15:42:45.676Z,37.60
2018-07-27T15:46:49.010Z,37.70
2018-07-27T15:50:52.358Z,37.80
2018-07-27T15:54:55.679Z,37.90
2018-07-27T15:58:59.019Z,38.00
2018-07-27T16:03:02.364Z,38.20
2018-07-27T16:07:05.757Z,38.40
2018-07-27T16:11:09.099Z,38.60
2018-07-27T16:15:12.441Z,38.70
2018-07-27T16:19:15.784Z,38.90
2018-07-27T16:23:19.121Z,39.10
2018-07-27T16:27:22.443Z,39.20
2018-07-27T16:31:25.758Z,39.30
2018-07-27T16:35:29.178Z,39.40
2018-07-27T16:39:32.549Z,39.40
2018-07-27T16:43:35.875Z,39.30
2018-07-27T16:47:39.192Z,39.40
2018-07-27T16:51:42.512Z,39.30
2018-07-27T16:55:45.849Z,39.20
2018-07-27T16:59:49.233Z,39.00
2018-07-27T17:03:52.533Z,38.80
2018-07-27T17:07:55.881Z,38.40
2018-07-27T17:11:59.233Z,38.30
2018-07-27T17:16:02.552Z,38.00
2018-07-27T17:20:06.370Z,37.70
2018-07-27T17:24:09.671Z,37.30
2018-07-27T17:28:13.000Z,37.20
2018-07-27T17:32:16.303Z,36.80
2018-07-27T17:36:19.644Z,36.60
2018-07-27T17:40:22.979Z,36.40
2018-07-27T17:44:26.316Z,36.30
2018-07-27T17:48:29.673Z,36.10
2018-07-27T17:52:32.996Z,35.80
2018-07-27T17:56:36.327Z,35.60
2018-07-27T18:00:39.659Z,35.50
2018-07-27T18:04:43.048Z,35.30
2018-07-27T18:08:46.503Z,35.10
2018-07-27T18:12:49.891Z,34.90
2018-07-27T18:16:53.234Z,34.80
2018-07-27T18:20:56.588Z,34.60
2018-07-27T18:25:00.023Z,34.40
2018-07-27T18:29:03.361Z,34.20
2018-07-27T18:33:07.187Z,34.10
2018-07-27T18:37:10.599Z,34.00
2018-07-27T18:41:14.072Z,33.80
2018-07-27T18:45:17.423Z,33.70
2018-07-27T18:49:20.766Z,33.50
2018-07-27T18:53:28.659Z,33.40
2018-07-27T18:57:32.009Z,33.30
2018-07-27T19:01:35.372Z,33.10
2018-07-27T19:05:38.700Z,33.00
2018-07-27T19:09:42.034Z,32.80
2018-07-27T19:13:45.392Z,32.70
2018-07-27T19:17:48.823Z,32.50
2018-07-27T19:21:52.191Z,32.40
2018-07-27T19:25:55.808Z,32.30
2018-07-27T19:29:59.184Z,32.20
2018-07-27T19:34:02.852Z,32.10
2018-07-27T19:38:06.252Z,32.00
2018-07-27T19:42:09.719Z,31.90
2018-07-27T19:46:14.181Z,31.80
2018-07-27T19:50:17.544Z,31.70
2018-07-27T19:58:24.035Z,31.40
2018-07-27T20:02:27.394Z,31.40
2018-07-27T20:06:30.749Z,31.30
2018-07-27T20:10:34.144Z,31.10
2018-07-27T20:14:37.476Z,31.10
2018-07-27T20:18:40.836Z,31.00
2018-07-27T20:22:44.199Z,30.90
2018-07-27T20:26:47.547Z,30.80
2018-07-27T20:30:50.890Z,30.70
2018-07-27T20:34:54.223Z,30.60
2018-07-27T20:38:57.543Z,30.50
2018-07-27T20:43:01.212Z,30.40
2018-07-27T20:47:04.584Z,30.30
2018-07-27T20:51:07.992Z,30.10
2018-07-27T20:55:11.327Z,30.00
2018-07-27T20:59:14.648Z,29.90
2018-07-27T21:03:17.975Z,29.80
2018-07-27T21:07:21.704Z,29.60
2018-07-27T21:11:25.125Z,29.50
2018-07-27T21:15:28.451Z,29.40
2018-07-27T21:19:31.822Z,29.30
2018-07-27T21:23:35.172Z,29.20
2018-07-27T21:27:38.499Z,29.00
2018-07-27T21:31:41.924Z,28.90
2018-07-27T21:35:45.279Z,28.80
2018-07-27T21:39:48.580Z,28.70
2018-07-27T21:43:51.923Z,28.60
2018-07-27T21:47:55.312Z,28.50
2018-07-27T21:51:58.654Z,28.40
2018-07-27T21:56:04.216Z,28.30
2018-07-27T22:00:10.277Z,28.20
2018-07-27T22:04:13.650Z,28.10
2018-07-27T22:08:16.983Z,28.00
2018-07-27T22:12:20.318Z,27.90
2018-07-27T22:16:23.671Z,27.80
2018-07-27T22:20:27.036Z,27.70
2018-07-27T22:24:30.401Z,27.60
2018-07-27T22:28:33.717Z,27.60
2018-07-27T22:32:37.085Z,27.50
2018-07-27T22:36:40.586Z,27.40
2018-07-27T22:40:50.535Z,27.30
2018-07-27T22:44:53.787Z,27.30
2018-07-27T22:48:57.180Z,27.30
2018-07-27T22:53:00.512Z,27.30
2018-07-27T22:57:03.866Z,27.30
2018-07-27T23:01:07.292Z,27.30
2018-07-27T23:05:11.203Z,27.20
2018-07-27T23:09:14.579Z,27.20
2018-07-27T23:13:17.911Z,27.20
2018-07-27T23:17:21.283Z,27.20
2018-07-27T23:21:24.626Z,27.10
2018-07-27T23:25:28.006Z,27.10
2018-07-27T23:29:31.349Z,27.10
2018-07-27T23:33:34.694Z,27.00
2018-07-27T23:37:38.069Z,26.90
2018-07-27T23:41:41.694Z,26.80
2018-07-27T23:45:45.080Z,26.80
2018-07-27T23:49:48.460Z,26.70
2018-07-27T23:53:51.797Z,26.60
2018-07-27T23:57:55.155Z,26.50
